createdAt,value
2023-03-02T00:01:55.025Z,6.40
2023-03-02T00:04:27.358Z,6.30
2023-03-02T00:07:01.299Z,6.35
2023-03-02T00:09:30.340Z,6.55
2023-03-02T00:11:58.988Z,6.22
2023-03-02T00:14:27.712Z,6.88
2023-03-02T00:16:56.110Z,6.38
2023-03-02T00:19:24.543Z,6.22
2023-03-02T00:21:53.070Z,6.90
2023-03-02T00:24:22.860Z,7.35
2023-03-02T00:26:51.249Z,7.03
2023-03-02T00:29:19.742Z,5.80
2023-03-02T00:31:48.258Z,6.80
2023-03-02T00:34:16.835Z,6.18
2023-03-02T00:36:45.310Z,6.88
2023-03-02T00:39:14.167Z,6.13
2023-03-02T00:41:44.044Z,7.60
2023-03-02T00:44:17.613Z,7.00
2023-03-02T00:46:46.678Z,6.60
2023-03-02T00:49:15.144Z,7.00
2023-03-02T00:51:43.625Z,5.50
2023-03-02T00:54:12.131Z,6.03
2023-03-02T00:56:40.559Z,6.32
2023-03-02T00:59:26.517Z,6.28
2023-03-02T01:01:58.244Z,6.28
2023-03-02T01:04:29.839Z,6.72
2023-03-02T01:06:58.507Z,5.72
2023-03-02T01:09:27.692Z,6.20
2023-03-02T01:11:56.226Z,7.50
2023-03-02T01:14:26.642Z,6.10
2023-03-02T01:16:55.760Z,5.45
2023-03-02T01:19:24.510Z,5.47
2023-03-02T01:21:53.109Z,5.60
2023-03-02T01:24:21.569Z,5.97
2023-03-02T01:26:50.216Z,5.35
2023-03-02T01:29:18.817Z,5.30
2023-03-02T01:31:48.776Z,5.72
2023-03-02T01:34:17.517Z,6.10
2023-03-02T01:36:46.444Z,5.45
2023-03-02T01:39:16.085Z,6.18
2023-03-02T01:41:45.010Z,6.28
2023-03-02T01:44:39.603Z,6.25
2023-03-02T01:47:15.459Z,5.53
2023-03-02T01:49:51.133Z,5.63
2023-03-02T01:52:20.576Z,5.85
2023-03-02T01:54:50.669Z,5.88
2023-03-02T01:57:24.065Z,6.20
2023-03-02T01:59:57.131Z,6.07
2023-03-02T02:02:27.769Z,6.00
2023-03-02T02:04:57.484Z,6.88
2023-03-02T02:07:25.908Z,6.18
2023-03-02T02:09:56.643Z,5.60
2023-03-02T02:12:25.219Z,5.88
2023-03-02T02:14:55.093Z,5.25
2023-03-02T02:17:23.637Z,5.47
2023-03-02T02:20:05.941Z,5.57
2023-03-02T02:22:50.690Z,5.80
2023-03-02T02:25:34.045Z,4.85
2023-03-02T02:28:14.540Z,5.78
2023-03-02T02:30:44.150Z,4.28
2023-03-02T02:33:17.588Z,5.25
2023-03-02T02:35:47.917Z,5.97
2023-03-02T02:38:20.270Z,5.28
2023-03-02T02:40:52.822Z,5.35
2023-03-02T02:43:24.053Z,5.95
2023-03-02T02:45:56.476Z,5.75
2023-03-02T02:48:27.028Z,4.88
2023-03-02T02:51:00.430Z,5.00
2023-03-02T02:53:34.068Z,5.57
2023-03-02T02:56:03.938Z,5.88
2023-03-02T02:58:36.884Z,5.22
2023-03-02T03:01:06.179Z,5.22
2023-03-02T03:03:37.471Z,5.00
2023-03-02T03:06:08.349Z,5.20
2023-03-02T03:08:51.965Z,4.88
2023-03-02T03:11:24.445Z,5.50
2023-03-02T03:13:59.712Z,5.28
2023-03-02T03:16:31.104Z,5.68
2023-03-02T03:19:06.537Z,4.72
2023-03-02T03:21:35.141Z,5.15
2023-03-02T03:24:03.534Z,5.25
2023-03-02T03:26:32.257Z,4.70
2023-03-02T03:29:02.981Z,5.68
2023-03-02T03:31:31.380Z,5.35
2023-03-02T03:34:00.557Z,5.38
2023-03-02T03:36:29.980Z,4.95
2023-03-02T03:38:59.746Z,5.35
2023-03-02T03:41:28.444Z,5.13
2023-03-02T03:43:56.830Z,5.60
2023-03-02T03:46:32.024Z,4.85
2023-03-02T03:49:01.460Z,4.80
2023-03-02T03:51:34.991Z,4.60
2023-03-02T03:54:04.206Z,5.43
2023-03-02T03:56:34.642Z,5.45
2023-03-02T03:59:07.218Z,5.50
2023-03-02T04:01:39.706Z,5.38
2023-03-02T04:04:10.058Z,5.45
2023-03-02T04:06:38.603Z,5.32
2023-03-02T04:09:09.836Z,5.18
2023-03-02T04:11:40.802Z,5.53
2023-03-02T04:14:10.375Z,5.13
2023-03-02T04:16:41.057Z,5.38
2023-03-02T04:19:10.210Z,5.78
2023-03-02T04:21:39.183Z,5.25
2023-03-02T04:24:08.242Z,4.95
2023-03-02T04:26:37.699Z,4.45
2023-03-02T04:29:07.140Z,4.90
2023-03-02T04:31:35.996Z,5.35
2023-03-02T04:34:06.867Z,5.40
2023-03-02T04:36:37.728Z,5.28
2023-03-02T04:39:07.608Z,5.18
2023-03-02T04:41:36.485Z,5.28
2023-03-02T04:44:05.099Z,5.00
2023-03-02T04:46:35.019Z,4.57
2023-03-02T04:49:05.729Z,4.72
2023-03-02T04:51:36.608Z,4.72
2023-03-02T04:54:09.652Z,5.38
2023-03-02T04:56:38.071Z,5.20
2023-03-02T04:59:06.918Z,5.13
2023-03-02T05:01:35.356Z,5.10
2023-03-02T05:04:05.656Z,4.85
2023-03-02T05:06:34.830Z,5.10
2023-03-02T05:09:04.709Z,5.40
2023-03-02T05:11:33.537Z,5.93
2023-03-02T05:14:04.207Z,5.25
2023-03-02T05:16:35.475Z,5.30
2023-03-02T05:19:07.790Z,5.28
2023-03-02T05:21:36.641Z,6.07
2023-03-02T05:24:05.945Z,4.53
2023-03-02T05:26:34.796Z,5.65
2023-03-02T05:29:03.535Z,5.25
2023-03-02T05:31:35.956Z,4.75
2023-03-02T05:34:08.907Z,5.40
2023-03-02T05:36:38.553Z,5.45
2023-03-02T05:39:10.203Z,5.10
2023-03-02T05:41:39.361Z,6.10
2023-03-02T05:44:11.793Z,5.25
2023-03-02T05:46:40.864Z,4.63
2023-03-02T05:49:10.682Z,4.93
2023-03-02T05:51:39.934Z,5.68
2023-03-02T05:54:08.837Z,5.45
2023-03-02T05:56:37.605Z,4.95
2023-03-02T05:59:09.036Z,5.65
2023-03-02T06:01:38.468Z,5.45
2023-03-02T06:04:07.156Z,5.82
2023-03-02T06:06:37.147Z,5.32
2023-03-02T06:09:05.829Z,4.97
2023-03-02T06:11:34.240Z,5.30
2023-03-02T06:14:02.924Z,5.80
2023-03-02T06:16:33.714Z,5.47
2023-03-02T06:19:02.627Z,5.60
2023-03-02T06:21:30.971Z,5.72
2023-03-02T06:24:03.020Z,5.43
2023-03-02T06:26:32.032Z,5.82
2023-03-02T06:29:09.784Z,5.47
2023-03-02T06:31:41.097Z,5.95
2023-03-02T06:34:09.796Z,5.95
2023-03-02T06:36:38.996Z,5.65
2023-03-02T06:39:16.693Z,5.15
2023-03-02T06:41:47.802Z,6.57
2023-03-02T06:44:18.085Z,5.55
2023-03-02T06:46:47.613Z,6.57
2023-03-02T06:49:16.375Z,5.70
2023-03-02T06:51:44.848Z,7.15
2023-03-02T06:54:14.959Z,7.18
2023-03-02T06:56:44.771Z,6.15
2023-03-02T06:59:13.262Z,6.32
2023-03-02T07:01:43.699Z,7.43
2023-03-02T07:04:13.434Z,6.65
2023-03-02T07:06:41.937Z,5.65
2023-03-02T07:09:10.333Z,6.50
2023-03-02T07:11:40.093Z,7.20
2023-03-02T07:14:08.536Z,6.88
2023-03-02T07:16:37.038Z,7.63
2023-03-02T07:19:07.877Z,6.85
2023-03-02T07:21:36.807Z,7.22
2023-03-02T07:24:05.691Z,7.60
2023-03-02T07:26:34.343Z,8.75
2023-03-02T07:29:04.360Z,8.63
2023-03-02T07:31:33.095Z,8.32
2023-03-02T07:34:03.087Z,8.68
2023-03-02T07:36:32.987Z,8.63
2023-03-02T07:39:05.660Z,9.43
2023-03-02T07:41:34.368Z,8.15
2023-03-02T07:44:09.320Z,8.32
2023-03-02T07:46:38.053Z,8.55
2023-03-02T07:49:06.660Z,9.13
2023-03-02T07:51:37.248Z,8.10
2023-03-02T07:54:05.754Z,8.85
2023-03-02T07:56:34.162Z,9.50
2023-03-02T07:59:05.305Z,9.90
2023-03-02T08:01:34.107Z,8.90
2023-03-02T08:04:02.663Z,9.38
2023-03-02T08:06:31.145Z,10.30
2023-03-02T08:09:00.248Z,11.18
2023-03-02T08:11:28.596Z,9.13
2023-03-02T08:14:01.329Z,9.18
2023-03-02T08:16:32.085Z,9.35
2023-03-02T08:19:00.482Z,9.20
2023-03-02T08:21:29.874Z,9.52
2023-03-02T08:23:58.963Z,10.20
2023-03-02T08:26:27.815Z,10.80
2023-03-02T08:28:56.564Z,10.02
2023-03-02T08:31:25.027Z,10.82
2023-03-02T08:33:55.124Z,9.68
2023-03-02T08:36:23.917Z,10.60
2023-03-02T08:38:53.268Z,10.73
2023-03-02T08:41:24.127Z,9.10
2023-03-02T08:43:54.191Z,9.40
2023-03-02T08:46:23.904Z,10.18
2023-03-02T08:48:52.256Z,9.00
2023-03-02T08:51:23.858Z,9.43
2023-03-02T08:53:55.043Z,9.70
2023-03-02T08:56:28.056Z,9.93
2023-03-02T08:58:59.859Z,9.07
2023-03-02T09:01:30.486Z,9.30
2023-03-02T09:04:00.730Z,8.27
2023-03-02T09:06:32.413Z,9.00
2023-03-02T09:09:01.451Z,8.88
2023-03-02T09:11:30.249Z,9.13
2023-03-02T09:13:58.668Z,9.10
2023-03-02T09:16:27.160Z,8.60
2023-03-02T09:18:56.048Z,7.85
2023-03-02T09:21:25.540Z,7.57
2023-03-02T09:23:59.752Z,8.23
2023-03-02T09:26:28.756Z,7.90
2023-03-02T09:28:57.415Z,8.20
2023-03-02T09:31:27.885Z,9.70
2023-03-02T09:33:57.985Z,7.60
2023-03-02T09:36:27.554Z,7.80
2023-03-02T09:38:57.505Z,9.10
2023-03-02T09:42:06.625Z,9.15
2023-03-02T09:45:00.101Z,8.80
2023-03-02T09:47:37.116Z,8.27
2023-03-02T09:50:26.549Z,8.00
2023-03-02T09:53:16.733Z,7.88
2023-03-02T09:55:52.772Z,8.88
2023-03-02T09:58:25.456Z,8.13
2023-03-02T10:00:53.996Z,7.65
2023-03-02T10:03:29.033Z,7.07
2023-03-02T10:05:58.879Z,7.55
2023-03-02T10:08:30.531Z,8.07
2023-03-02T10:11:07.166Z,7.57
2023-03-02T10:13:44.250Z,7.32
2023-03-02T10:16:22.691Z,6.80
2023-03-02T10:18:59.968Z,8.05
2023-03-02T10:21:34.061Z,8.20
2023-03-02T10:24:08.822Z,7.57
2023-03-02T10:26:42.005Z,7.00
2023-03-02T10:29:32.694Z,6.93
2023-03-02T10:32:09.113Z,7.43
2023-03-02T10:34:39.555Z,6.35
2023-03-02T10:37:15.515Z,7.07
2023-03-02T10:39:47.070Z,7.00
2023-03-02T10:42:21.574Z,6.68
2023-03-02T10:44:53.578Z,7.13
2023-03-02T10:47:28.744Z,6.95
2023-03-02T10:49:58.649Z,6.97
2023-03-02T10:52:28.639Z,6.38
2023-03-02T10:55:04.701Z,7.25
2023-03-02T10:57:39.006Z,6.57
2023-03-02T11:00:18.430Z,6.20
2023-03-02T11:02:51.975Z,5.97
2023-03-02T11:05:24.051Z,6.45
2023-03-02T11:07:54.763Z,6.05
2023-03-02T11:10:25.354Z,6.85
2023-03-02T11:12:55.125Z,6.90
2023-03-02T11:15:29.459Z,6.05
2023-03-02T11:18:05.269Z,5.93
2023-03-02T11:20:37.006Z,6.10
2023-03-02T11:23:19.543Z,6.05
2023-03-02T11:25:53.675Z,5.93
2023-03-02T11:28:34.714Z,5.82
2023-03-02T11:31:07.668Z,6.00
2023-03-02T11:33:40.645Z,5.43
2023-03-02T11:36:15.379Z,5.40
2023-03-02T11:38:48.587Z,5.57
2023-03-02T11:41:29.653Z,5.30
2023-03-02T11:44:02.272Z,6.00
2023-03-02T11:46:33.291Z,6.82
2023-03-02T11:49:06.003Z,6.20
2023-03-02T11:51:39.079Z,6.82
2023-03-02T11:54:33.774Z,6.60
2023-03-02T11:57:02.600Z,6.78
2023-03-02T11:59:33.068Z,5.85
2023-03-02T12:02:02.700Z,5.95
2023-03-02T12:04:33.978Z,5.90
2023-03-02T12:07:05.234Z,5.90
2023-03-02T12:09:37.215Z,6.28
2023-03-02T12:12:30.530Z,6.13
2023-03-02T12:15:00.760Z,6.03
2023-03-02T12:17:35.539Z,5.53
2023-03-02T12:20:24.823Z,5.63
2023-03-02T12:22:53.757Z,6.80
2023-03-02T12:25:38.025Z,5.38
2023-03-02T12:28:06.761Z,5.50
2023-03-02T12:30:37.762Z,5.78
2023-03-02T12:33:19.597Z,6.15
2023-03-02T12:35:49.968Z,6.60
2023-03-02T12:38:31.153Z,6.70
2023-03-02T12:41:25.405Z,5.80
2023-03-02T12:44:08.665Z,6.55
2023-03-02T12:46:40.286Z,5.28
2023-03-02T12:49:28.284Z,5.63
2023-03-02T12:51:58.084Z,5.97
2023-03-02T12:54:28.211Z,6.50
2023-03-02T12:57:08.861Z,6.03
2023-03-02T12:59:39.236Z,6.55
2023-03-02T13:02:18.202Z,7.28
2023-03-02T13:04:54.690Z,6.70
2023-03-02T13:07:26.519Z,6.70
2023-03-02T13:09:58.174Z,6.55
2023-03-02T13:12:29.212Z,7.68
2023-03-02T13:14:59.575Z,6.28
2023-03-02T13:17:31.648Z,6.85
2023-03-02T13:20:02.422Z,6.03
2023-03-02T13:22:31.332Z,6.25
2023-03-02T13:25:02.274Z,6.93
2023-03-02T13:27:31.560Z,6.85
2023-03-02T13:30:12.543Z,5.95
2023-03-02T13:32:43.253Z,6.72
2023-03-02T13:35:24.951Z,6.68
2023-03-02T13:38:01.235Z,7.18
2023-03-02T13:40:41.448Z,6.82
2023-03-02T13:43:35.480Z,6.75
2023-03-02T13:46:06.356Z,6.28
2023-03-02T13:48:36.108Z,5.85
2023-03-02T13:51:16.642Z,6.55
2023-03-02T13:53:54.020Z,6.55
2023-03-02T13:56:28.972Z,6.68
2023-03-02T13:58:59.128Z,6.40
2023-03-02T14:01:28.603Z,6.38
2023-03-02T14:04:00.477Z,7.30
2023-03-02T14:06:29.033Z,6.50
2023-03-02T14:08:57.612Z,6.20
2023-03-02T14:11:36.766Z,6.40
2023-03-02T14:14:06.676Z,7.70
2023-03-02T14:16:39.397Z,6.57
2023-03-02T14:19:11.547Z,6.72
2023-03-02T14:21:42.019Z,7.65
2023-03-02T14:24:10.754Z,6.78
2023-03-02T14:26:43.497Z,7.80
2023-03-02T14:29:22.335Z,9.23
2023-03-02T14:31:51.351Z,7.60
2023-03-02T14:34:21.139Z,9.68
2023-03-02T14:36:52.174Z,8.27
2023-03-02T14:39:24.986Z,7.97
2023-03-02T14:41:55.438Z,7.97
2023-03-02T14:44:24.222Z,7.57
2023-03-02T14:46:53.254Z,8.25
2023-03-02T14:49:23.027Z,8.40
2023-03-02T14:51:58.937Z,9.05
2023-03-02T14:54:28.297Z,8.93
2023-03-02T14:56:56.722Z,8.30
2023-03-02T14:59:25.024Z,9.18
2023-03-02T15:01:53.433Z,8.68
2023-03-02T15:04:23.151Z,8.07
2023-03-02T15:06:51.702Z,8.52
2023-03-02T15:09:20.060Z,8.90
2023-03-02T15:11:48.532Z,8.75
2023-03-02T15:14:17.154Z,9.38
2023-03-02T15:16:45.843Z,9.13
2023-03-02T15:19:14.808Z,8.95
2023-03-02T15:21:46.380Z,8.52
2023-03-02T15:24:14.966Z,7.97
2023-03-02T15:26:43.256Z,8.32
2023-03-02T15:29:11.813Z,8.60
2023-03-02T15:31:40.583Z,9.32
2023-03-02T15:34:10.614Z,8.25
2023-03-02T15:36:39.678Z,9.60
2023-03-02T15:39:13.673Z,8.60
2023-03-02T15:41:43.641Z,9.00
2023-03-02T15:44:21.444Z,8.60
2023-03-02T15:46:51.893Z,8.98
2023-03-02T15:49:22.832Z,9.38
2023-03-02T15:51:52.826Z,8.32
2023-03-02T15:54:22.901Z,8.98
2023-03-02T15:56:53.119Z,8.57
2023-03-02T15:59:22.180Z,8.65
2023-03-02T16:01:52.614Z,8.50
2023-03-02T16:04:21.065Z,8.80
2023-03-02T16:06:49.625Z,8.82
2023-03-02T16:09:18.201Z,9.05
2023-03-02T16:11:49.379Z,9.75
2023-03-02T16:14:18.008Z,9.35
2023-03-02T16:16:47.084Z,8.27
2023-03-02T16:19:19.195Z,8.63
2023-03-02T16:21:48.222Z,8.27
2023-03-02T16:24:17.311Z,9.13
2023-03-02T16:26:46.192Z,9.13
2023-03-02T16:29:15.912Z,9.15
2023-03-02T16:31:46.613Z,10.15
2023-03-02T16:34:15.266Z,9.07
2023-03-02T16:36:43.832Z,10.30
2023-03-02T16:39:13.855Z,9.02
2023-03-02T16:41:44.123Z,10.20
2023-03-02T16:44:13.388Z,10.23
2023-03-02T16:46:43.353Z,9.85
2023-03-02T16:52:05.193Z,11.18
2023-03-02T16:54:33.578Z,11.77
2023-03-02T16:57:03.763Z,11.43
2023-03-02T16:59:32.090Z,12.40
2023-03-02T17:02:01.962Z,12.60
2023-03-02T17:04:30.463Z,13.50
2023-03-02T17:07:00.879Z,14.25
2023-03-02T17:09:30.188Z,15.18
2023-03-02T17:11:58.632Z,14.57
2023-03-02T17:14:27.397Z,14.00
2023-03-02T17:16:56.328Z,13.80
2023-03-02T17:19:29.328Z,14.13
2023-03-02T17:21:59.065Z,15.82
2023-03-02T17:24:28.225Z,16.58
2023-03-02T17:26:59.403Z,16.00
2023-03-02T17:29:28.726Z,14.98
2023-03-02T17:31:59.018Z,15.63
2023-03-02T17:34:31.204Z,13.55
2023-03-02T17:37:00.583Z,14.65
2023-03-02T17:39:34.111Z,13.88
2023-03-02T17:42:02.440Z,14.85
2023-03-02T17:44:34.387Z,15.07
2023-03-02T17:47:03.893Z,13.80
2023-03-02T17:49:33.643Z,13.73
2023-03-02T17:52:02.108Z,13.95
2023-03-02T17:54:30.794Z,14.05
2023-03-02T17:56:59.469Z,14.48
2023-03-02T17:59:27.789Z,13.48
2023-03-02T18:01:56.674Z,14.57
2023-03-02T18:04:25.091Z,14.57
2023-03-02T18:06:54.925Z,15.43
2023-03-02T18:09:23.371Z,15.98
2023-03-02T18:11:51.803Z,15.18
2023-03-02T18:14:21.537Z,13.52
2023-03-02T18:16:49.911Z,15.15
2023-03-02T18:19:18.292Z,14.45
2023-03-02T18:21:46.717Z,14.45
2023-03-02T18:24:16.499Z,13.95
2023-03-02T18:26:45.111Z,13.98
2023-03-02T18:29:13.780Z,14.98
2023-03-02T18:31:42.358Z,14.77
2023-03-02T18:34:11.250Z,15.77
2023-03-02T18:36:39.721Z,15.60
2023-03-02T18:39:08.649Z,14.88
2023-03-02T18:41:38.339Z,15.70
2023-03-02T18:44:07.487Z,16.20
2023-03-02T18:46:36.100Z,15.40
2023-03-02T18:49:04.612Z,17.17
2023-03-02T18:51:33.176Z,17.52
2023-03-02T18:54:01.890Z,17.23
2023-03-02T18:56:30.558Z,18.83
2023-03-02T18:59:00.371Z,17.42
2023-03-02T19:01:31.718Z,17.15
2023-03-02T19:04:02.142Z,17.10
2023-03-02T19:06:30.985Z,17.23
2023-03-02T19:08:59.391Z,16.52
2023-03-02T19:11:27.827Z,17.30
2023-03-02T19:13:56.477Z,17.63
2023-03-02T19:16:26.244Z,17.73
2023-03-02T19:18:54.779Z,18.15
2023-03-02T19:21:23.135Z,19.23
2023-03-02T19:23:51.777Z,18.40
2023-03-02T19:26:20.301Z,18.73
2023-03-02T19:28:48.907Z,20.17
2023-03-02T19:31:17.697Z,18.55
2023-03-02T19:33:47.867Z,19.98
2023-03-02T19:36:16.602Z,20.98
2023-03-02T19:38:45.161Z,21.45
2023-03-02T19:41:16.307Z,23.80
2023-03-02T19:43:45.905Z,20.38
2023-03-02T19:46:15.634Z,23.10
2023-03-02T19:48:44.219Z,20.80
2023-03-02T19:51:15.640Z,21.15
2023-03-02T19:53:47.076Z,23.73
2023-03-02T19:56:16.476Z,23.23
2023-03-02T19:58:50.373Z,23.33
2023-03-02T20:01:21.526Z,25.20
2023-03-02T20:03:51.740Z,23.95
2023-03-02T20:06:23.341Z,24.77
2023-03-02T20:08:52.448Z,25.08
2023-03-02T20:11:21.268Z,24.35
2023-03-02T20:13:50.582Z,26.65
2023-03-02T20:16:23.009Z,25.02
2023-03-02T20:18:52.407Z,28.45
2023-03-02T20:21:25.871Z,26.20
2023-03-02T20:23:54.976Z,25.40
2023-03-02T20:26:27.680Z,26.50
2023-03-02T20:28:58.016Z,28.83
2023-03-02T20:31:27.401Z,29.77
2023-03-02T20:33:59.063Z,29.15
2023-03-02T20:36:32.695Z,29.63
2023-03-02T20:39:05.251Z,29.83
2023-03-02T20:41:34.117Z,29.98
2023-03-02T20:44:04.446Z,29.08
2023-03-02T20:46:36.381Z,33.40
2023-03-02T20:49:05.885Z,32.40
2023-03-02T20:51:35.931Z,32.50
2023-03-02T20:54:05.386Z,31.25
2023-03-02T20:56:33.877Z,31.90
2023-03-02T20:59:02.827Z,31.55
2023-03-02T21:01:31.600Z,32.50
2023-03-02T21:04:00.115Z,32.03
2023-03-02T21:06:29.469Z,33.03
2023-03-02T21:09:00.111Z,31.83
2023-03-02T21:11:29.451Z,31.15
2023-03-02T21:13:59.413Z,30.70
2023-03-02T21:16:30.148Z,31.65
2023-03-02T21:18:59.184Z,30.80
2023-03-02T21:21:40.661Z,29.90
2023-03-02T21:24:13.228Z,29.05
2023-03-02T21:26:44.157Z,31.80
2023-03-02T21:29:12.933Z,29.90
2023-03-02T21:31:43.725Z,30.45
2023-03-02T21:34:13.279Z,29.77
2023-03-02T21:36:44.175Z,29.45
2023-03-02T21:39:15.560Z,27.60
2023-03-02T21:41:44.571Z,28.48
2023-03-02T21:44:13.319Z,26.08
2023-03-02T21:46:44.519Z,26.50
2023-03-02T21:49:17.137Z,25.67
2023-03-02T21:51:48.087Z,23.90
2023-03-02T21:54:18.801Z,26.73
2023-03-02T21:56:47.611Z,26.17
2023-03-02T21:59:16.505Z,23.63
2023-03-02T22:01:45.249Z,26.58
2023-03-02T22:04:13.960Z,23.85
2023-03-02T22:06:42.858Z,23.10
2023-03-02T22:09:12.403Z,24.20
2023-03-02T22:11:42.799Z,23.88
2023-03-02T22:14:13.983Z,22.98
2023-03-02T22:16:46.486Z,22.95
2023-03-02T22:19:25.278Z,22.67
2023-03-02T22:24:25.340Z,19.73
2023-03-02T22:26:59.695Z,21.33
2023-03-02T22:29:31.435Z,22.17
2023-03-02T22:32:14.089Z,21.75
2023-03-02T22:34:44.287Z,19.98
2023-03-02T22:37:15.122Z,21.02
2023-03-02T22:39:43.625Z,21.10
2023-03-02T22:42:17.184Z,21.88
2023-03-02T22:44:52.468Z,20.38
2023-03-02T22:47:21.444Z,22.30
2023-03-02T22:49:57.534Z,22.45
2023-03-02T22:52:36.114Z,20.98
2023-03-02T22:57:49.578Z,20.40
2023-03-02T23:00:40.453Z,21.20
2023-03-02T23:03:17.668Z,20.65
2023-03-02T23:05:49.172Z,20.98
2023-03-02T23:08:22.208Z,20.73
2023-03-02T23:10:52.492Z,20.88
2023-03-02T23:13:26.936Z,21.27
2023-03-02T23:15:56.075Z,22.05
2023-03-02T23:18:27.536Z,21.25
2023-03-02T23:20:56.831Z,22.65
2023-03-02T23:23:27.632Z,22.85
2023-03-02T23:25:56.322Z,21.13
2023-03-02T23:28:26.161Z,23.42
2023-03-02T23:30:54.687Z,23.35
2023-03-02T23:33:23.293Z,23.42
2023-03-02T23:35:51.752Z,22.58
2023-03-02T23:38:20.381Z,24.60
2023-03-02T23:40:48.982Z,21.75
2023-03-02T23:43:17.529Z,21.23
2023-03-02T23:45:47.332Z,21.88
2023-03-02T23:48:16.435Z,21.73
2023-03-02T23:50:45.453Z,20.80
2023-03-02T23:53:14.208Z,22.25
2023-03-02T23:55:48.019Z,20.35
2023-03-02T23:58:17.084Z,20.63
